Time;durP1;ratioP1;P1;durP2;ratioP2;P2;SDS_P1;SDS_P2;PMS_P1;PMS_P2;Temp;Humidity;BMP_temperature;BMP_pressure;BME280_temperature;BME280_humidity;BME280_pressure;Samples;Min_cycle;Max_cycle;Signal;HPM_P1;HPM_P2
2022/11/17 00:01:50;;;;;;;17.00;2.05;;;20.50;23.10;;;;;;5057122;28;20077;-63
2022/11/17 00:04:16;;;;;;;15.68;2.42;;;20.50;23.10;;;;;;5061200;28;20073;-64
2022/11/17 00:06:42;;;;;;;11.25;2.13;;;20.40;22.90;;;;;;5055239;28;20089;-63
2022/11/17 00:09:16;;;;;;;14.88;2.67;;;20.40;23.40;;;;;;5063183;28;20076;-64
2022/11/17 00:14:31;;;;;;;13.02;2.58;;;20.20;23.70;;;;;;5069518;28;20107;-65
2022/11/17 00:17:05;;;;;;;17.98;2.40;;;20.10;23.40;;;;;;5059591;28;20116;-65
2022/11/17 00:22:16;;;;;;;10.15;2.10;;;19.90;23.50;;;;;;5058075;28;20080;-65
2022/11/17 00:24:43;;;;;;;25.83;2.88;;;19.90;23.70;;;;;;5063845;28;20076;-67
2022/11/17 00:27:09;;;;;;;19.80;2.33;;;19.80;24.00;;;;;;5064194;28;20460;-64
2022/11/17 00:29:36;;;;;;;26.40;2.55;;;19.60;24.50;;;;;;5061675;28;20069;-65
2022/11/17 00:34:47;;;;;;;16.85;2.95;;;19.40;24.80;;;;;;5060135;28;20588;-66
2022/11/17 00:37:15;;;;;;;23.23;2.72;;;19.30;25.30;;;;;;5063312;28;20073;-66
2022/11/17 00:39:42;;;;;;;25.35;3.85;;;19.20;25.50;;;;;;5047553;28;20073;-65
2022/11/17 00:42:08;;;;;;;18.08;3.08;;;19.00;25.80;;;;;;5057587;28;20530;-66
2022/11/17 00:44:34;;;;;;;21.90;4.20;;;18.90;25.90;;;;;;5064720;28;20073;-64
2022/11/17 00:47:01;;;;;;;20.38;2.47;;;18.80;26.30;;;;;;5060995;28;20559;-65
2022/11/17 00:49:27;;;;;;;17.25;2.67;;;18.70;26.30;;;;;;5062218;28;20118;-63
2022/11/17 00:51:55;;;;;;;14.65;2.80;;;18.70;26.50;;;;;;5044808;28;20517;-66
2022/11/17 00:54:22;;;;;;;19.95;2.78;;;18.70;26.70;;;;;;5058545;28;20203;-64
2022/11/17 00:56:48;;;;;;;26.77;3.08;;;18.50;26.90;;;;;;5060728;28;20099;-66
2022/11/17 00:59:16;;;;;;;30.77;3.58;;;18.40;26.90;;;;;;5043439;28;20069;-66
2022/11/17 01:01:43;;;;;;;25.98;3.38;;;18.30;27.00;;;;;;5038615;28;20558;-65
2022/11/17 01:04:11;;;;;;;16.35;2.88;;;18.20;26.90;;;;;;5060594;28;20077;-64
2022/11/17 01:06:43;;;;;;;28.58;2.97;;;18.10;27.10;;;;;;5062483;28;20081;-64
2022/11/17 01:09:18;;;;;;;20.83;2.90;;;18.10;27.50;;;;;;5061204;28;20411;-64
2022/11/17 01:11:46;;;;;;;12.02;2.65;;;18.00;27.60;;;;;;5059057;28;20081;-62
2022/11/17 01:14:17;;;;;;;26.05;4.38;;;17.90;27.50;;;;;;5061132;28;20116;-65
2022/11/17 01:16:44;;;;;;;21.65;3.58;;;17.90;27.80;;;;;;5063691;28;20736;-63
2022/11/17 01:19:14;;;;;;;29.23;3.60;;;17.70;28.10;;;;;;5057851;28;20069;-63
2022/11/17 01:21:40;;;;;;;17.27;3.53;;;17.80;27.90;;;;;;5063238;28;20069;-64
2022/11/17 01:24:08;;;;;;;27.80;3.88;;;17.70;27.90;;;;;;5060455;28;20112;-65
2022/11/17 01:26:36;;;;;;;19.98;3.63;;;17.60;28.20;;;;;;5063491;28;20073;-64
2022/11/17 01:29:04;;;;;;;13.18;3.30;;;17.60;28.80;;;;;;5057841;28;20113;-65
2022/11/17 01:31:33;;;;;;;27.55;3.88;;;17.40;29.20;;;;;;5058689;28;20483;-65
2022/11/17 01:34:00;;;;;;;19.90;4.30;;;17.30;29.20;;;;;;5063430;28;20612;-65
2022/11/17 01:39:28;;;;;;;18.77;4.07;;;17.20;29.60;;;;;;5064037;28;20108;-63
2022/11/17 01:41:55;;;;;;;27.30;3.85;;;17.10;29.50;;;;;;5062288;28;20135;-64
2022/11/17 01:44:37;;;;;;;21.55;4.78;;;17.10;29.20;;;;;;5060406;28;20097;-66
2022/11/17 01:47:10;;;;;;;21.02;4.28;;;17.10;29.20;;;;;;5060800;28;20530;-66
2022/11/17 01:49:37;;;;;;;26.73;4.53;;;17.00;29.20;;;;;;5057751;28;20065;-63
2022/11/17 01:52:08;;;;;;;33.35;5.32;;;17.00;29.40;;;;;;5055161;28;20081;-64
2022/11/17 01:54:39;;;;;;;25.65;4.43;;;16.90;29.40;;;;;;5061013;28;20092;-67
2022/11/17 01:57:11;;;;;;;23.10;3.65;;;16.80;29.60;;;;;;5057941;28;20096;-66
2022/11/17 01:59:45;;;;;;;22.52;4.03;;;16.70;29.50;;;;;;5060633;28;20073;-66
2022/11/17 02:02:11;;;;;;;23.15;3.83;;;16.60;29.60;;;;;;5059799;28;20069;-64
2022/11/17 02:04:40;;;;;;;;;;;16.60;29.60;;;;;;5059261;28;20073;-65
2022/11/17 02:07:13;;;;;;;27.65;4.57;;;16.60;29.60;;;;;;5060663;28;20000;-63
2022/11/17 02:09:41;;;;;;;41.83;4.18;;;16.60;29.70;;;;;;5062956;28;20088;-64
2022/11/17 02:12:13;;;;;;;25.73;3.63;;;16.50;29.50;;;;;;5057925;28;20514;-64
2022/11/17 02:14:40;;;;;;;23.25;3.65;;;16.50;29.20;;;;;;5056686;28;20127;-66
2022/11/17 02:17:08;;;;;;;20.38;3.03;;;16.40;28.80;;;;;;5061710;28;20211;-67
2022/11/17 02:19:40;;;;;;;23.65;3.00;;;16.50;28.30;;;;;;5060553;28;20130;-64
2022/11/17 02:22:42;;;;;;;26.25;3.65;;;16.50;29.10;;;;;;5056202;28;20158;-65
2022/11/17 02:25:30;;;;;;;23.35;3.78;;;16.50;28.10;;;;;;5036596;28;20110;-64
2022/11/17 02:28:05;;;;;;;24.80;3.70;;;16.40;28.20;;;;;;5058518;28;20109;-63
2022/11/17 02:30:59;;;;;;;21.45;2.70;;;16.40;28.70;;;;;;5063320;28;20069;-67
2022/11/17 02:33:29;;;;;;;14.88;3.15;;;16.30;29.00;;;;;;5060255;28;20128;-64
2022/11/17 02:36:17;;;;;;;22.27;3.75;;;16.30;29.30;;;;;;5059286;28;20069;-65
2022/11/17 02:38:49;;;;;;;23.95;4.40;;;16.30;29.40;;;;;;5060046;28;20172;-63
2022/11/17 02:41:35;;;;;;;27.77;4.68;;;16.20;29.60;;;;;;5060333;28;20066;-64
2022/11/17 02:44:28;;;;;;;25.35;3.75;;;16.10;29.80;;;;;;5057147;28;20071;-65
2022/11/17 02:47:22;;;;;;;31.10;4.32;;;16.00;30.00;;;;;;5046816;28;20120;-64
2022/11/17 02:50:00;;;;;;;40.67;5.22;;;16.00;30.20;;;;;;5057600;28;20154;-64
2022/11/17 02:52:27;;;;;;;33.13;5.07;;;16.00;30.10;;;;;;5060996;28;20530;-63
2022/11/17 02:55:02;;;;;;;27.02;5.90;;;15.90;30.80;;;;;;5061990;28;20096;-63
2022/11/17 02:57:37;;;;;;;31.05;5.57;;;15.90;30.80;;;;;;5055827;28;20073;-64
2022/11/17 03:00:15;;;;;;;31.77;5.65;;;15.80;31.00;;;;;;5059324;28;20068;-63
2022/11/17 03:03:24;;;;;;;37.95;6.35;;;15.70;31.50;;;;;;5059883;28;20207;-62
2022/11/17 03:06:19;;;;;;;16.55;5.15;;;15.70;31.50;;;;;;4976855;28;20106;-65
2022/11/17 03:08:45;;;;;;;34.63;5.55;;;15.60;31.50;;;;;;5046295;28;20134;-65
2022/11/17 03:11:13;;;;;;;24.95;5.68;;;15.40;31.60;;;;;;5062914;28;20080;-63
2022/11/17 03:14:04;;;;;;;30.42;5.90;;;15.40;32.20;;;;;;5053311;28;20124;-64
2022/11/17 03:16:36;;;;;;;38.35;5.25;;;15.40;32.20;;;;;;5049742;28;20431;-63
2022/11/17 03:19:06;;;;;;;42.55;6.13;;;15.30;32.10;;;;;;5060966;28;20100;-65
2022/11/17 03:21:47;;;;;;;40.05;6.05;;;15.20;32.60;;;;;;5059377;28;20073;-64
2022/11/17 03:24:23;;;;;;;37.38;6.00;;;15.10;33.30;;;;;;5055854;28;20164;-63
2022/11/17 03:26:55;;;;;;;26.03;5.70;;;15.10;33.40;;;;;;5048740;28;20080;-63
2022/11/17 03:29:25;;;;;;;34.35;5.55;;;15.00;33.70;;;;;;5049662;28;20601;-64
2022/11/17 03:31:56;;;;;;;28.25;5.43;;;14.90;33.60;;;;;;5049059;28;20073;-65
2022/11/17 03:34:25;;;;;;;32.97;5.43;;;14.80;33.90;;;;;;5058540;28;20081;-64
2022/11/17 03:37:00;;;;;;;29.05;5.25;;;14.70;33.00;;;;;;5045005;28;20065;-62
2022/11/17 03:39:40;;;;;;;40.72;7.90;;;14.70;34.10;;;;;;5049796;28;20534;-63
2022/11/17 03:42:21;;;;;;;38.50;7.00;;;14.80;33.50;;;;;;5056184;28;20515;-65
2022/11/17 03:44:54;;;;;;;41.30;8.02;;;14.80;32.90;;;;;;5060899;28;20075;-65
2022/11/17 03:47:25;;;;;;;44.30;9.48;;;14.70;33.60;;;;;;5060185;28;20104;-63
2022/11/17 03:50:10;;;;;;;30.55;10.55;;;14.70;33.70;;;;;;5054655;28;20077;-65
2022/11/17 03:52:37;;;;;;;39.97;10.80;;;14.70;33.70;;;;;;5055017;28;20109;-63
2022/11/17 03:55:05;;;;;;;40.63;11.10;;;14.60;34.20;;;;;;5061711;28;20081;-64
2022/11/17 03:57:53;;;;;;;48.92;12.05;;;14.60;33.80;;;;;;5052420;28;20108;-63
2022/11/17 04:00:20;;;;;;;42.30;10.02;;;14.60;33.30;;;;;;5055635;28;20076;-66
2022/11/17 04:02:52;;;;;;;37.05;8.95;;;14.50;33.40;;;;;;5053534;28;20069;-65
2022/11/17 04:05:19;;;;;;;37.20;8.32;;;14.50;33.60;;;;;;5056068;28;20066;-66
2022/11/17 04:07:47;;;;;;;52.03;8.27;;;14.50;32.90;;;;;;5059482;28;20076;-64
2022/11/17 04:10:15;;;;;;;38.30;8.70;;;14.60;33.90;;;;;;5055388;28;20488;-65
2022/11/17 04:18:13;;;;;;;39.88;5.90;;;14.40;33.20;;;;;;5062762;28;20596;-65
2022/11/17 04:20:39;;;;;;;30.15;5.82;;;14.40;33.10;;;;;;5056045;28;20172;-64
2022/11/17 04:23:06;;;;;;;;;;;14.40;33.00;;;;;;5052624;28;20070;-65
2022/11/17 04:28:45;;;;;;;27.75;4.10;;;14.40;33.70;;;;;;5055806;28;20124;-64
2022/11/17 04:31:23;;;;;;;28.98;3.90;;;14.30;33.50;;;;;;5059562;28;20164;-66
2022/11/17 04:33:56;;;;;;;37.65;5.22;;;14.30;33.70;;;;;;5062196;28;20103;-64
2022/11/17 04:36:24;;;;;;;37.72;5.55;;;14.30;33.10;;;;;;5053672;28;20077;-65
2022/11/17 04:38:54;;;;;;;34.83;8.02;;;14.30;33.50;;;;;;5043626;28;20088;-66
2022/11/17 04:44:08;;;;;;;64.63;12.73;;;14.30;32.90;;;;;;5062228;28;20154;-67
2022/11/17 04:46:36;;;;;;;60.42;13.18;;;14.30;33.10;;;;;;5059863;28;20077;-68
2022/11/17 04:49:04;;;;;;;71.25;15.50;;;14.20;33.40;;;;;;5061753;28;20164;-68
2022/11/17 04:51:31;;;;;;;75.82;17.15;;;14.20;33.90;;;;;;5056093;28;20085;-66
2022/11/17 04:53:57;;;;;;;90.70;18.80;;;14.20;34.20;;;;;;5061569;28;20107;-66
2022/11/17 04:56:24;;;;;;;70.35;17.50;;;14.10;34.00;;;;;;5040773;28;20077;-67
2022/11/17 04:58:51;;;;;;;83.47;19.60;;;14.10;33.90;;;;;;5063747;28;20096;-67
2022/11/17 05:01:18;;;;;;;74.60;19.70;;;14.10;34.60;;;;;;5067154;28;20159;-66
2022/11/17 05:03:59;;;;;;;91.13;20.83;;;14.00;34.20;;;;;;5059138;28;20108;-66
2022/11/17 05:06:32;;;;;;;90.22;20.20;;;13.90;33.90;;;;;;5062218;28;20077;-65
2022/11/17 05:09:01;;;;;;;92.80;19.55;;;13.90;34.30;;;;;;5055216;28;20080;-66
2022/11/17 05:14:16;;;;;;;87.50;20.17;;;13.90;34.80;;;;;;5060501;28;20100;-67
2022/11/17 05:19:29;;;;;;;82.32;16.08;;;13.90;33.10;;;;;;5059574;28;20131;-67
2022/11/17 05:21:55;;;;;;;65.32;16.25;;;13.90;33.50;;;;;;5060001;28;20418;-66
2022/11/17 05:24:22;;;;;;;62.33;14.30;;;13.90;32.60;;;;;;5061543;28;20069;-66
2022/11/17 05:26:49;;;;;;;50.35;12.35;;;14.00;33.50;;;;;;5060296;28;20107;-67
2022/11/17 05:29:18;;;;;;;44.08;11.93;;;14.00;32.60;;;;;;5060624;28;20111;-67
2022/11/17 05:31:45;;;;;;;45.10;11.77;;;14.00;33.10;;;;;;5061062;28;20119;-65
2022/11/17 05:34:13;;;;;;;44.30;10.18;;;14.00;33.10;;;;;;5056173;28;20089;-66
2022/11/17 05:36:40;;;;;;;43.17;9.35;;;13.90;33.20;;;;;;5062008;28;20073;-63
2022/11/17 05:39:07;;;;;;;44.15;7.75;;;13.90;33.90;;;;;;5062723;28;20077;-67
2022/11/17 05:41:35;;;;;;;37.72;7.47;;;13.80;33.10;;;;;;5058160;28;20082;-66
2022/11/17 05:44:02;;;;;;;42.78;9.27;;;13.80;33.00;;;;;;5061081;28;20119;-66
2022/11/17 05:46:29;;;;;;;52.38;12.35;;;13.90;32.70;;;;;;5063762;28;20077;-65
2022/11/17 05:48:55;;;;;;;65.20;12.82;;;13.80;34.00;;;;;;5062154;28;20069;-68
2022/11/17 05:51:22;;;;;;;;;;;13.80;33.40;;;;;;5062481;28;20134;-66
2022/11/17 05:53:49;;;;;;;42.58;12.32;;;13.80;32.20;;;;;;5044276;28;20114;-66
2022/11/17 05:56:21;;;;;;;49.72;12.30;;;13.80;32.60;;;;;;5059400;28;20073;-70
2022/11/17 05:58:53;;;;;;;39.15;11.90;;;13.80;31.30;;;;;;5055580;28;20472;-67
2022/11/17 06:01:21;;;;;;;44.92;11.57;;;13.80;31.50;;;;;;5037909;28;20073;-67
2022/11/17 06:03:51;;;;;;;25.48;8.48;;;13.80;31.20;;;;;;5056556;28;20085;-67
2022/11/17 06:06:18;;;;;;;30.85;8.73;;;13.90;30.90;;;;;;5057439;28;20074;-69
2022/11/17 06:08:44;;;;;;;;;;;13.90;31.00;;;;;;5062979;28;20198;-69
2022/11/17 06:11:11;;;;;;;34.55;9.27;;;13.90;31.30;;;;;;5057041;28;20485;-67
2022/11/17 06:13:37;;;;;;;28.27;10.52;;;13.90;31.40;;;;;;5058482;28;20179;-68
2022/11/17 06:16:06;;;;;;;;;;;13.90;32.10;;;;;;5060578;28;20085;-67
2022/11/17 06:18:39;;;;;;;21.17;9.50;;;13.80;32.90;;;;;;5059856;28;19953;-70
2022/11/17 06:21:07;;;;;;;21.48;6.57;;;13.80;32.90;;;;;;5060660;28;20080;-68
2022/11/17 06:23:35;;;;;;;24.90;8.32;;;13.70;32.80;;;;;;5066346;28;20580;-68
2022/11/17 06:26:06;;;;;;;30.83;10.95;;;13.70;33.00;;;;;;5058653;28;20077;-68
2022/11/17 06:28:34;;;;;;;24.83;8.63;;;13.60;33.10;;;;;;5060263;28;20112;-66
2022/11/17 06:31:01;;;;;;;23.75;8.15;;;13.50;33.70;;;;;;5056648;28;20070;-69
2022/11/17 06:33:31;;;;;;;23.15;6.85;;;13.50;33.90;;;;;;5063060;28;20174;-68
2022/11/17 06:36:03;;;;;;;14.00;4.90;;;13.50;34.20;;;;;;5062090;28;20871;-68
2022/11/17 06:38:32;;;;;;;12.13;4.55;;;13.50;34.30;;;;;;5061397;28;20081;-68
2022/11/17 06:40:58;;;;;;;17.23;4.28;;;13.50;34.50;;;;;;5058982;28;20097;-66
2022/11/17 06:43:24;;;;;;;;;;;13.50;34.30;;;;;;5059040;28;20127;-67
2022/11/17 06:45:51;;;;;;;16.02;5.47;;;13.60;34.60;;;;;;5052622;28;19981;-69
2022/11/17 06:48:24;;;;;;;;;;;13.50;34.60;;;;;;5052760;28;20089;-67
2022/11/17 06:50:50;;;;;;;18.40;5.28;;;13.50;34.70;;;;;;5054691;28;20407;-67
2022/11/17 06:53:16;;;;;;;;;;;13.50;35.20;;;;;;5055565;28;20128;-69
2022/11/17 06:55:52;;;;;;;10.98;4.22;;;13.50;35.90;;;;;;5048923;28;19996;-70
2022/11/17 06:58:18;;;;;;;40.08;17.52;;;13.50;36.70;;;;;;5060528;28;20065;-72
2022/11/17 07:00:44;;;;;;;;;;;13.50;36.60;;;;;;5063485;28;20495;-70
2022/11/17 07:03:10;;;;;;;19.63;5.53;;;13.40;36.70;;;;;;5059829;28;19958;-72
2022/11/17 07:05:37;;;;;;;;;;;13.40;37.10;;;;;;5061582;28;20131;-68
2022/11/17 07:08:06;;;;;;;26.05;5.97;;;13.40;37.80;;;;;;5061390;28;19964;-71
2022/11/17 07:10:33;;;;;;;11.40;5.03;;;13.30;36.50;;;;;;5049394;28;20493;-68
2022/11/17 07:13:00;;;;;;;13.32;4.63;;;13.20;36.40;;;;;;5068995;28;20073;-70
2022/11/17 07:15:26;;;;;;;18.23;5.25;;;13.20;36.50;;;;;;5049620;28;20085;-71
2022/11/17 07:17:52;;;;;;;;;;;13.10;37.10;;;;;;5055416;28;20072;-67
2022/11/17 07:20:19;;;;;;;19.33;5.03;;;13.10;36.50;;;;;;5054979;28;19965;-71
2022/11/17 07:22:47;;;;;;;20.73;4.75;;;13.10;36.60;;;;;;5060594;28;20835;-69
2022/11/17 07:25:14;;;;;;;10.98;4.05;;;13.10;37.20;;;;;;5059692;28;20469;-71
2022/11/17 07:27:41;;;;;;;14.10;3.35;;;13.00;37.30;;;;;;5047531;28;20117;-72
2022/11/17 07:30:08;;;;;;;;;;;13.00;37.60;;;;;;5062778;28;20077;-68
2022/11/17 07:32:35;;;;;;;20.75;3.35;;;13.00;37.70;;;;;;5048983;28;19961;-70
2022/11/17 07:35:04;;;;;;;13.75;2.90;;;12.90;37.70;;;;;;5047882;28;20094;-70
2022/11/17 07:37:32;;;;;;;13.40;3.47;;;12.80;38.30;;;;;;5049236;28;20648;-68
2022/11/17 07:39:59;;;;;;;12.85;2.60;;;12.80;38.60;;;;;;5060712;28;20647;-71
2022/11/17 07:42:26;;;;;;;14.65;2.60;;;12.80;38.60;;;;;;5062540;28;20089;-71
2022/11/17 07:44:52;;;;;;;14.43;2.60;;;12.80;38.60;;;;;;5056964;28;20095;-71
2022/11/17 07:47:19;;;;;;;12.63;2.22;;;12.80;38.70;;;;;;5056022;28;20156;-72
2022/11/17 07:49:45;;;;;;;12.30;2.03;;;12.80;38.90;;;;;;5054639;28;20074;-69
2022/11/17 07:52:11;;;;;;;;;;;12.80;39.10;;;;;;5059896;28;20085;-69
2022/11/17 07:54:38;;;;;;;22.00;2.85;;;12.70;38.90;;;;;;5059359;28;19977;-71
2022/11/17 07:57:04;;;;;;;21.15;3.40;;;12.70;39.00;;;;;;5058569;28;20070;-72
2022/11/17 07:59:30;;;;;;;;;;;12.60;39.20;;;;;;5059735;28;20510;-71
2022/11/17 08:01:56;;;;;;;22.52;3.85;;;12.60;39.30;;;;;;5057098;28;19961;-69
2022/11/17 08:04:23;;;;;;;;;;;12.60;39.40;;;;;;5060178;28;21588;-70
2022/11/17 08:06:49;;;;;;;23.65;3.92;;;12.60;39.20;;;;;;5057244;28;20429;-70
2022/11/17 08:09:15;;;;;;;;;;;12.70;39.20;;;;;;5059222;28;20077;-71
2022/11/17 08:11:41;;;;;;;16.13;4.38;;;12.70;38.50;;;;;;5058614;28;19972;-71
2022/11/17 08:14:07;;;;;;;;;;;12.70;38.60;;;;;;5057413;28;20096;-71
2022/11/17 08:16:34;;;;;;;17.83;4.00;;;12.70;38.20;;;;;;5057995;28;19961;-70
2022/11/17 08:19:00;;;;;;;;;;;12.70;38.20;;;;;;5058100;28;20161;-69
2022/11/17 08:21:26;;;;;;;14.23;2.95;;;12.70;37.70;;;;;;5062680;28;19957;-68
2022/11/17 08:23:53;;;;;;;;;;;12.70;37.40;;;;;;5060904;28;20531;-69
2022/11/17 08:26:22;;;;;;;8.93;2.72;;;12.70;37.40;;;;;;5055088;28;19981;-70
2022/11/17 08:28:48;;;;;;;12.15;3.45;;;12.70;37.80;;;;;;5059064;28;20117;-69
2022/11/17 08:31:14;;;;;;;;;;;12.80;38.20;;;;;;5061779;28;20080;-70
2022/11/17 08:33:41;;;;;;;8.15;2.35;;;12.80;38.30;;;;;;5064611;28;19977;-71
2022/11/17 08:36:07;;;;;;;;;;;12.80;38.70;;;;;;5056913;28;20066;-69
2022/11/17 08:38:33;;;;;;;14.82;3.70;;;12.90;39.10;;;;;;5057956;28;19977;-69
2022/11/17 08:41:05;;;;;;;14.60;4.07;;;12.70;39.30;;;;;;5061381;28;20164;-69
2022/11/17 08:43:32;;;;;;;12.48;4.35;;;12.70;39.50;;;;;;5063077;28;20113;-70
2022/11/17 08:45:58;;;;;;;17.65;4.50;;;12.70;39.00;;;;;;5059059;28;20070;-69
2022/11/17 08:48:25;;;;;;;16.50;4.75;;;12.70;39.40;;;;;;5056801;28;20178;-71
2022/11/17 08:50:52;;;;;;;13.20;4.30;;;12.50;39.80;;;;;;5062037;28;20104;-72
2022/11/17 08:53:18;;;;;;;;;;;12.50;40.30;;;;;;5056637;28;20591;-70
2022/11/17 08:55:45;;;;;;;22.60;5.07;;;12.50;40.10;;;;;;5061638;28;19973;-69
2022/11/17 08:58:12;;;;;;;9.85;4.15;;;12.50;40.20;;;;;;5059051;28;20077;-68
2022/11/17 09:00:39;;;;;;;17.42;4.32;;;12.40;40.70;;;;;;5055445;28;20075;-72
2022/11/17 09:03:09;;;;;;;17.48;4.18;;;12.40;41.20;;;;;;5058028;28;20090;-71
2022/11/17 09:05:40;;;;;;;12.20;3.92;;;12.30;41.90;;;;;;5064704;28;20088;-70
2022/11/17 09:08:07;;;;;;;12.52;4.32;;;12.40;42.10;;;;;;5054012;28;20089;-70
2022/11/17 09:10:37;;;;;;;12.30;3.38;;;12.30;42.50;;;;;;5063043;28;20085;-71
2022/11/17 09:13:03;;;;;;;9.50;3.00;;;12.30;42.90;;;;;;5045421;28;20089;-72
2022/11/17 09:15:31;;;;;;;10.70;2.75;;;12.30;43.20;;;;;;5063835;28;20125;-70
2022/11/17 09:17:58;;;;;;;13.90;2.70;;;12.40;43.40;;;;;;5061101;28;20072;-71
2022/11/17 09:20:24;;;;;;;;;;;12.30;43.70;;;;;;5063278;28;20091;-70
2022/11/17 09:22:50;;;;;;;10.48;2.75;;;12.30;44.30;;;;;;5061093;28;20342;-69
2022/11/17 09:25:16;;;;;;;11.02;3.05;;;12.30;44.90;;;;;;5063119;28;20155;-71
2022/11/17 09:27:43;;;;;;;;;;;12.30;45.30;;;;;;5064748;28;20113;-72
2022/11/17 09:30:10;;;;;;;13.70;3.55;;;12.30;45.10;;;;;;5062129;28;19961;-72
2022/11/17 09:32:36;;;;;;;14.23;4.55;;;12.30;46.00;;;;;;5059992;28;20109;-70
2022/11/17 09:35:05;;;;;;;20.00;5.35;;;12.20;46.10;;;;;;5064548;28;20534;-70
2022/11/17 09:37:32;;;;;;;22.23;6.22;;;12.10;45.90;;;;;;5046769;28;20084;-72
2022/11/17 09:39:59;;;;;;;23.73;6.13;;;12.10;45.40;;;;;;5059980;28;20065;-68
2022/11/17 09:42:27;;;;;;;19.63;6.05;;;11.90;46.20;;;;;;5061273;28;20092;-70
2022/11/17 09:45:01;;;;;;;10.70;4.90;;;12.00;46.40;;;;;;5063965;28;20080;-70
2022/11/17 09:47:42;;;;;;;25.42;4.90;;;11.80;47.00;;;;;;5060556;28;20430;-71
2022/11/17 09:50:32;;;;;;;23.75;4.75;;;11.90;47.00;;;;;;5048909;28;20077;-69
2022/11/17 09:53:01;;;;;;;18.65;4.50;;;11.70;47.40;;;;;;5064187;28;20073;-69
2022/11/17 09:55:41;;;;;;;14.73;3.70;;;11.60;47.70;;;;;;5060560;28;20089;-71
2022/11/17 09:58:45;;;;;;;23.15;3.88;;;11.60;47.30;;;;;;5056415;28;20066;-71
2022/11/17 10:01:16;;;;;;;19.08;3.97;;;11.50;47.70;;;;;;5060269;28;20108;-71
2022/11/17 10:03:45;;;;;;;14.88;3.92;;;11.60;48.00;;;;;;5057813;28;20072;-72
2022/11/17 10:06:24;;;;;;;18.15;3.70;;;11.50;47.90;;;;;;5040407;28;20093;-70
2022/11/17 10:09:08;;;;;;;28.67;4.03;;;11.60;47.40;;;;;;5054469;28;20088;-69
2022/11/17 10:11:38;;;;;;;15.85;3.53;;;11.60;48.10;;;;;;5051675;28;20438;-70
2022/11/17 10:14:15;;;;;;;15.40;3.58;;;11.60;48.70;;;;;;5057230;28;20105;-69
2022/11/17 10:16:55;;;;;;;23.23;3.97;;;11.50;47.90;;;;;;5036852;28;20433;-69
2022/11/17 10:19:28;;;;;;;29.13;4.90;;;11.40;47.80;;;;;;5057175;28;20494;-70
2022/11/17 10:22:00;;;;;;;35.95;9.35;;;11.50;47.60;;;;;;5057036;28;20077;-69
2022/11/17 10:24:41;;;;;;;25.00;9.43;;;11.50;47.70;;;;;;5060542;28;20108;-70
2022/11/17 10:27:28;;;;;;;35.00;13.00;;;11.50;48.00;;;;;;5065370;28;20073;-71
2022/11/17 10:30:22;;;;;;;35.40;15.18;;;11.40;49.50;;;;;;5056591;28;20549;-70
2022/11/17 10:32:56;;;;;;;34.38;14.20;;;11.30;48.60;;;;;;5052672;28;20171;-70
2022/11/17 10:35:29;;;;;;;32.80;14.50;;;11.30;48.80;;;;;;5055307;28;20097;-69
2022/11/17 10:37:57;;;;;;;32.40;14.30;;;11.30;48.70;;;;;;5060318;28;20096;-71
2022/11/17 10:40:29;;;;;;;31.42;13.68;;;11.30;48.60;;;;;;5059290;28;20104;-71
2022/11/17 10:43:04;;;;;;;36.38;12.70;;;11.20;49.50;;;;;;5062368;28;20093;-71
2022/11/17 10:45:31;;;;;;;32.72;12.73;;;11.10;49.50;;;;;;5054568;28;20138;-69
2022/11/17 10:48:09;;;;;;;34.97;13.27;;;11.00;49.70;;;;;;5065299;28;20546;-69
2022/11/17 10:50:36;;;;;;;24.95;12.18;;;11.00;49.30;;;;;;5057595;28;20095;-71
2022/11/17 10:53:40;;;;;;;36.28;11.57;;;11.00;49.20;;;;;;5057610;28;20641;-68
2022/11/17 10:56:28;;;;;;;30.95;12.43;;;10.90;49.30;;;;;;5059504;28;20101;-69
2022/11/17 10:59:15;;;;;;;26.85;11.80;;;10.90;49.60;;;;;;5061405;28;20538;-71
2022/11/17 11:01:46;;;;;;;;;;;10.90;49.40;;;;;;5039426;28;20079;-69
2022/11/17 11:04:31;;;;;;;32.03;10.57;;;10.90;49.20;;;;;;5054995;28;20369;-69
2022/11/17 11:07:09;;;;;;;30.65;11.30;;;10.80;49.60;;;;;;5056979;28;20069;-69
2022/11/17 11:09:41;;;;;;;35.65;10.80;;;10.90;49.50;;;;;;5059359;28;20080;-64
2022/11/17 11:12:15;;;;;;;29.75;9.73;;;11.00;50.10;;;;;;5055978;28;20438;-66
2022/11/17 11:14:52;;;;;;;32.28;10.23;;;11.60;49.80;;;;;;5066004;28;20120;-65
2022/11/17 11:17:19;;;;;;;31.55;9.63;;;11.90;48.90;;;;;;5056217;28;20072;-67
2022/11/17 11:19:51;;;;;;;23.55;8.85;;;12.10;48.30;;;;;;5057810;28;20092;-66
2022/11/17 11:22:55;;;;;;;28.98;8.98;;;12.20;47.20;;;;;;5055474;28;20136;-67
2022/11/17 11:25:48;;;;;;;27.10;9.23;;;12.40;46.60;;;;;;5051846;28;20534;-67
2022/11/17 11:28:56;;;;;;;19.80;7.85;;;12.40;45.80;;;;;;5052400;28;20113;-66
2022/11/17 11:31:28;;;;;;;25.48;7.47;;;12.20;45.10;;;;;;5033002;28;20112;-66
2022/11/17 11:34:26;;;;;;;22.85;7.00;;;12.10;44.80;;;;;;5060793;28;20101;-67
2022/11/17 11:37:12;;;;;;;22.17;7.38;;;12.00;45.10;;;;;;5051780;28;20832;-68
2022/11/17 11:39:50;;;;;;;22.02;6.88;;;11.90;44.40;;;;;;5060292;28;20081;-65
2022/11/17 11:42:33;;;;;;;17.45;6.82;;;12.00;44.40;;;;;;5057575;28;20069;-67
2022/11/17 11:45:21;;;;;;;19.08;7.03;;;11.90;44.80;;;;;;5055988;28;20134;-65
2022/11/17 11:48:06;;;;;;;16.90;6.47;;;12.00;44.00;;;;;;5059154;28;20516;-66
2022/11/17 11:50:40;;;;;;;18.08;6.93;;;12.30;44.10;;;;;;5055659;28;20605;-66
2022/11/17 11:53:35;;;;;;;19.35;6.50;;;12.30;43.50;;;;;;5055143;28;20077;-68
2022/11/17 11:56:37;;;;;;;17.00;6.38;;;12.20;42.90;;;;;;5053844;28;20427;-66
2022/11/17 11:59:21;;;;;;;17.67;5.93;;;11.90;43.20;;;;;;5057609;28;20544;-65
2022/11/17 12:02:15;;;;;;;19.92;6.25;;;12.10;42.70;;;;;;5052529;28;20073;-66
2022/11/17 12:04:58;;;;;;;24.98;6.20;;;11.90;43.50;;;;;;5064784;28;20119;-67
2022/11/17 12:08:03;;;;;;;12.75;5.57;;;11.80;43.10;;;;;;5058711;28;20128;-67
2022/11/17 12:10:59;;;;;;;15.85;5.05;;;11.80;42.90;;;;;;5057778;28;20097;-66
2022/11/17 12:13:26;;;;;;;27.45;12.88;;;11.90;41.50;;;;;;5057634;28;20101;-67
2022/11/17 12:16:15;;;;;;;11.77;4.22;;;12.00;40.50;;;;;;5056767;28;20098;-65
2022/11/17 12:18:42;;;;;;;12.32;4.50;;;12.00;39.70;;;;;;5060286;28;20089;-67
2022/11/17 12:21:11;;;;;;;;;;;12.00;39.30;;;;;;5063508;28;20160;-65
2022/11/17 12:24:05;;;;;;;12.18;4.57;;;12.00;37.30;;;;;;5061183;28;19961;-68
2022/11/17 12:26:33;;;;;;;12.80;5.65;;;12.00;36.50;;;;;;5061690;28;20093;-66
2022/11/17 12:29:21;;;;;;;11.27;4.80;;;12.10;37.10;;;;;;5060459;28;20171;-66
2022/11/17 12:31:52;;;;;;;14.35;4.95;;;12.10;36.40;;;;;;5057875;28;20109;-65
2022/11/17 12:34:23;;;;;;;14.05;4.88;;;12.20;36.50;;;;;;5046248;28;20135;-68
2022/11/17 12:37:14;;;;;;;15.00;5.85;;;12.20;37.20;;;;;;5062178;28;20160;-67
2022/11/17 12:39:59;;;;;;;11.00;4.93;;;12.00;37.50;;;;;;5065436;28;20073;-66
2022/11/17 12:42:27;;;;;;;15.65;4.07;;;12.10;36.60;;;;;;5064824;28;20129;-65
2022/11/17 12:45:00;;;;;;;14.32;4.82;;;12.30;36.40;;;;;;5061062;28;20089;-65
2022/11/17 12:47:56;;;;;;;11.20;4.13;;;12.10;37.20;;;;;;5063371;28;20086;-66
2022/11/17 12:50:22;;;;;;;13.52;4.22;;;12.20;36.60;;;;;;5053103;28;20113;-67
2022/11/17 12:53:13;;;;;;;11.27;4.22;;;12.20;36.60;;;;;;5058618;28;20123;-65
2022/11/17 12:55:51;;;;;;;10.82;4.25;;;12.30;37.50;;;;;;5063570;28;20453;-66
2022/11/17 12:58:24;;;;;;;12.70;4.15;;;12.20;37.60;;;;;;5061621;28;20069;-65
2022/11/17 13:00:58;;;;;;;8.48;3.95;;;12.20;38.50;;;;;;5059428;28;20172;-66
2022/11/17 13:03:53;;;;;;;7.68;2.97;;;12.30;38.30;;;;;;5058511;28;20542;-66
2022/11/17 13:06:20;;;;;;;5.97;3.10;;;12.30;38.10;;;;;;5061048;28;20550;-66
2022/11/17 13:09:10;;;;;;;11.13;2.95;;;12.10;38.40;;;;;;5062908;28;20078;-65
2022/11/17 13:11:36;;;;;;;9.90;2.88;;;12.10;37.20;;;;;;5058862;28;20073;-64
2022/11/17 13:14:07;;;;;;;;;;;12.10;37.20;;;;;;5060102;28;20116;-65
2022/11/17 13:16:38;;;;;;;9.68;3.00;;;12.20;38.00;;;;;;5058261;28;19964;-66
2022/11/17 13:19:40;;;;;;;5.03;2.22;;;12.10;38.30;;;;;;5060690;28;20058;-65
2022/11/17 13:22:15;;;;;;;10.35;2.50;;;12.00;38.70;;;;;;5058187;28;20061;-66
2022/11/17 13:24:47;;;;;;;10.63;2.58;;;11.90;38.60;;;;;;5059046;28;20081;-68
2022/11/17 13:27:31;;;;;;;7.43;2.35;;;11.90;39.40;;;;;;5057878;28;20435;-67
2022/11/17 13:30:24;;;;;;;7.30;2.45;;;11.90;39.50;;;;;;5060454;28;20522;-67
2022/11/17 13:32:50;;;;;;;6.97;2.10;;;11.90;39.50;;;;;;5063612;28;20484;-65
2022/11/17 13:35:27;;;;;;;10.63;2.30;;;11.90;39.30;;;;;;5058876;28;20130;-65
2022/11/17 13:38:05;;;;;;;8.13;1.90;;;11.80;40.40;;;;;;5061108;28;20084;-66
2022/11/17 13:40:34;;;;;;;6.65;2.13;;;11.80;40.70;;;;;;5063771;28;20077;-66